createdAt,value
2022-10-25T00:00:20.099Z,10.63
2022-10-25T00:02:25.737Z,10.38
2022-10-25T00:04:30.045Z,10.50
2022-10-25T00:06:32.320Z,9.10
2022-10-25T00:08:34.384Z,9.43
2022-10-25T00:10:36.558Z,9.82
2022-10-25T00:12:45.925Z,9.32
2022-10-25T00:14:47.911Z,9.60
2022-10-25T00:16:49.954Z,8.90
2022-10-25T00:18:52.914Z,9.90
2022-10-25T00:20:55.552Z,8.68
2022-10-25T00:22:57.722Z,9.38
2022-10-25T00:24:59.739Z,8.50
2022-10-25T00:27:01.866Z,8.88
2022-10-25T00:29:04.204Z,8.68
2022-10-25T00:31:09.516Z,8.75
2022-10-25T00:33:12.666Z,7.93
2022-10-25T00:35:14.680Z,8.35
2022-10-25T00:37:16.742Z,9.55
2022-10-25T00:39:18.989Z,8.10
2022-10-25T00:41:25.483Z,8.73
2022-10-25T00:43:37.572Z,7.28
2022-10-25T00:45:39.819Z,8.80
2022-10-25T00:47:49.116Z,9.55
2022-10-25T00:50:03.273Z,8.30
2022-10-25T00:52:08.330Z,8.68
2022-10-25T00:54:13.406Z,10.13
2022-10-25T00:56:22.567Z,10.35
2022-10-25T00:58:28.351Z,11.38
2022-10-25T01:00:30.395Z,10.43
2022-10-25T01:02:34.290Z,9.70
2022-10-25T01:04:36.403Z,9.63
2022-10-25T01:06:43.740Z,10.15
2022-10-25T01:08:50.616Z,9.13
2022-10-25T01:10:53.198Z,9.52
2022-10-25T01:12:56.212Z,8.27
2022-10-25T01:14:58.650Z,8.27
2022-10-25T01:17:18.765Z,8.55
2022-10-25T01:19:48.273Z,8.48
2022-10-25T01:21:56.994Z,7.80
2022-10-25T01:23:58.904Z,7.93
2022-10-25T01:26:38.308Z,8.40
2022-10-25T01:28:58.250Z,8.77
2022-10-25T01:31:19.172Z,8.88
2022-10-25T01:33:43.953Z,10.27
2022-10-25T01:36:16.092Z,7.97
2022-10-25T01:38:37.289Z,8.93
2022-10-25T01:40:53.464Z,8.73
2022-10-25T01:43:04.534Z,9.43
2022-10-25T01:45:09.617Z,9.35
2022-10-25T01:47:20.665Z,8.98
2022-10-25T01:49:34.851Z,9.18
2022-10-25T01:51:37.529Z,8.82
2022-10-25T01:53:50.652Z,8.50
2022-10-25T01:55:57.758Z,8.60
2022-10-25T01:58:18.522Z,8.50
2022-10-25T02:00:23.049Z,10.77
2022-10-25T02:02:52.845Z,10.18
2022-10-25T02:05:10.626Z,10.35
2022-10-25T02:07:48.193Z,9.82
2022-10-25T02:09:59.182Z,8.95
2022-10-25T02:12:04.884Z,9.27
2022-10-25T02:14:15.581Z,8.57
2022-10-25T02:16:25.598Z,7.93
2022-10-25T02:20:36.071Z,9.10
2022-10-25T02:22:39.750Z,8.10
2022-10-25T02:24:45.992Z,8.10
2022-10-25T02:26:56.580Z,7.95
2022-10-25T02:29:00.632Z,8.98
2022-10-25T02:31:03.818Z,8.68
2022-10-25T02:33:06.968Z,8.80
2022-10-25T02:35:15.809Z,9.43
2022-10-25T02:37:20.644Z,9.32
2022-10-25T02:39:27.679Z,9.05
2022-10-25T02:41:34.085Z,8.48
2022-10-25T02:43:36.735Z,8.80
2022-10-25T02:45:38.796Z,9.52
2022-10-25T02:47:40.807Z,9.68
2022-10-25T02:49:43.456Z,10.07
2022-10-25T02:51:48.566Z,10.43
2022-10-25T02:53:50.980Z,12.82
2022-10-25T02:56:05.213Z,13.68
2022-10-25T02:58:09.966Z,12.82
2022-10-25T03:02:19.731Z,12.13
2022-10-25T03:04:22.095Z,12.10
2022-10-25T03:06:24.370Z,10.68
2022-10-25T03:10:37.315Z,11.00
2022-10-25T03:12:39.586Z,10.35
2022-10-25T03:14:41.816Z,9.75
2022-10-25T03:16:44.306Z,10.35
2022-10-25T03:18:46.390Z,8.63
2022-10-25T03:20:48.755Z,8.45
2022-10-25T03:23:53.810Z,8.77
2022-10-25T03:26:00.720Z,8.68
2022-10-25T03:28:03.162Z,9.63
2022-10-25T03:30:05.635Z,9.00
2022-10-25T03:32:08.182Z,9.32
2022-10-25T03:34:10.350Z,9.00
2022-10-25T03:36:13.502Z,8.75
2022-10-25T03:38:15.458Z,9.18
2022-10-25T03:40:21.383Z,9.07
2022-10-25T03:42:23.781Z,8.48
2022-10-25T03:44:25.713Z,11.18
2022-10-25T03:46:27.826Z,9.85
2022-10-25T03:48:30.045Z,8.95
2022-10-25T03:50:36.252Z,9.88
2022-10-25T03:52:38.641Z,10.50
2022-10-25T03:54:44.201Z,9.60
2022-10-25T03:56:46.315Z,9.02
2022-10-25T03:58:48.421Z,10.05
2022-10-25T04:00:50.663Z,10.32
2022-10-25T04:03:01.734Z,9.18
2022-10-25T04:05:04.934Z,10.23
2022-10-25T04:07:07.089Z,9.52
2022-10-25T04:09:09.637Z,13.45
2022-10-25T04:11:11.582Z,40.97
2022-10-25T04:13:13.792Z,87.30
2022-10-25T04:15:16.223Z,94.10
2022-10-25T04:17:18.371Z,88.65
2022-10-25T04:19:20.395Z,57.63
2022-10-25T04:21:23.253Z,44.63
2022-10-25T04:23:25.415Z,52.05
2022-10-25T04:25:28.933Z,72.63
2022-10-25T04:27:31.011Z,87.85
2022-10-25T04:29:33.102Z,100.50
2022-10-25T04:31:35.322Z,101.97
2022-10-25T04:33:42.217Z,70.55
2022-10-25T04:35:54.206Z,49.20
2022-10-25T04:37:58.254Z,34.28
2022-10-25T04:40:00.574Z,25.27
2022-10-25T04:42:02.977Z,23.25
2022-10-25T04:44:05.424Z,32.33
2022-10-25T04:46:07.492Z,27.20
2022-10-25T04:48:09.601Z,22.67
2022-10-25T04:50:11.463Z,31.63
2022-10-25T04:52:13.608Z,30.35
2022-10-25T04:54:15.926Z,31.15
2022-10-25T04:56:18.109Z,35.20
2022-10-25T04:58:20.138Z,44.60
2022-10-25T05:00:22.405Z,39.47
2022-10-25T05:02:25.240Z,36.35
2022-10-25T05:04:27.767Z,35.33
2022-10-25T05:06:31.979Z,36.88
2022-10-25T05:08:36.334Z,38.97
2022-10-25T05:10:39.533Z,40.42
2022-10-25T05:12:41.574Z,40.33
2022-10-25T05:14:44.545Z,37.33
2022-10-25T05:16:46.677Z,27.95
2022-10-25T05:18:50.481Z,25.50
2022-10-25T05:20:57.048Z,20.05
2022-10-25T05:22:59.260Z,19.85
2022-10-25T05:25:04.144Z,19.95
2022-10-25T05:27:06.453Z,18.67
2022-10-25T05:29:11.971Z,24.40
2022-10-25T05:31:25.357Z,28.63
2022-10-25T05:33:27.640Z,36.42
2022-10-25T05:35:29.736Z,34.85
2022-10-25T05:37:34.033Z,29.73
2022-10-25T05:39:39.215Z,28.88
2022-10-25T05:41:41.393Z,27.80
2022-10-25T05:43:44.479Z,21.30
2022-10-25T05:45:46.488Z,18.42
2022-10-25T05:47:48.614Z,16.52
2022-10-25T05:49:50.672Z,16.15
2022-10-25T05:51:52.710Z,14.70
2022-10-25T05:53:57.031Z,15.18
2022-10-25T05:56:00.871Z,14.27
2022-10-25T05:58:04.070Z,16.60
2022-10-25T06:00:06.962Z,15.63
2022-10-25T06:02:10.069Z,17.35
2022-10-25T06:04:13.531Z,19.17
2022-10-25T06:06:15.976Z,21.52
2022-10-25T06:08:18.212Z,21.52
2022-10-25T06:10:45.424Z,21.08
2022-10-25T06:12:47.859Z,25.38
2022-10-25T06:14:49.982Z,27.77
2022-10-25T06:16:52.058Z,28.35
2022-10-25T06:18:55.088Z,28.35
2022-10-25T06:21:00.803Z,28.27
2022-10-25T06:23:02.985Z,28.55
2022-10-25T06:25:05.766Z,24.42
2022-10-25T06:27:07.847Z,26.75
2022-10-25T06:29:10.142Z,24.77
2022-10-25T06:31:15.556Z,24.50
2022-10-25T06:33:17.567Z,23.13
2022-10-25T06:35:19.568Z,24.88
2022-10-25T06:37:21.702Z,23.23
2022-10-25T06:39:23.755Z,29.27
2022-10-25T06:41:29.146Z,29.33
2022-10-25T06:43:32.893Z,28.83
2022-10-25T06:45:36.181Z,27.75
2022-10-25T06:47:41.034Z,28.25
2022-10-25T06:49:43.110Z,28.55
2022-10-25T06:51:45.624Z,27.67
2022-10-25T06:53:47.962Z,24.45
2022-10-25T06:55:49.973Z,24.50
2022-10-25T06:57:51.683Z,25.67
2022-10-25T06:59:55.970Z,25.17
2022-10-25T07:01:58.423Z,24.45
2022-10-25T07:04:02.476Z,24.67
2022-10-25T07:06:07.401Z,24.88
2022-10-25T07:08:09.784Z,24.67
2022-10-25T07:10:12.055Z,26.92
2022-10-25T07:12:13.900Z,25.85
2022-10-25T07:14:15.901Z,27.20
2022-10-25T07:16:19.462Z,32.92
2022-10-25T07:18:21.585Z,59.72
2022-10-25T07:20:23.658Z,65.88
2022-10-25T07:22:26.005Z,78.20
2022-10-25T07:24:28.136Z,102.25
2022-10-25T07:26:33.041Z,93.43
2022-10-25T07:28:35.128Z,87.05
2022-10-25T07:30:36.855Z,72.70
2022-10-25T07:32:41.665Z,65.40
2022-10-25T07:34:44.647Z,58.67
2022-10-25T07:36:46.551Z,55.35
2022-10-25T07:38:48.742Z,72.00
2022-10-25T07:40:59.803Z,75.32
2022-10-25T07:43:02.027Z,93.53
2022-10-25T07:45:04.230Z,115.38
2022-10-25T07:47:06.237Z,140.07
2022-10-25T07:49:08.203Z,143.88
2022-10-25T07:51:15.423Z,142.25
2022-10-25T07:53:17.189Z,143.15
2022-10-25T07:55:21.581Z,129.98
2022-10-25T07:57:23.578Z,124.30
2022-10-25T07:59:26.010Z,109.40
2022-10-25T08:01:29.199Z,104.35
2022-10-25T08:03:31.982Z,98.13
2022-10-25T08:05:33.711Z,95.10
2022-10-25T08:07:36.234Z,111.90
2022-10-25T08:09:38.767Z,160.65
2022-10-25T08:11:41.206Z,184.52
2022-10-25T08:13:43.272Z,173.30
2022-10-25T08:15:53.089Z,160.13
2022-10-25T08:18:02.629Z,149.65
2022-10-25T08:20:05.257Z,144.00
2022-10-25T08:22:07.070Z,131.82
2022-10-25T08:24:09.068Z,113.90
2022-10-25T08:26:11.174Z,204.65
2022-10-25T08:28:13.483Z,173.95
2022-10-25T08:30:15.496Z,167.77
2022-10-25T08:32:17.289Z,150.98
2022-10-25T08:34:19.295Z,159.60
2022-10-25T08:36:21.265Z,113.38
2022-10-25T08:38:23.456Z,98.75
2022-10-25T08:40:30.090Z,90.68
2022-10-25T08:42:34.821Z,77.47
2022-10-25T08:44:55.189Z,61.03
2022-10-25T08:47:23.152Z,57.92
2022-10-25T08:50:03.541Z,56.28
2022-10-25T08:52:17.376Z,53.47
2022-10-25T08:54:38.107Z,73.40
2022-10-25T08:56:56.480Z,108.07
2022-10-25T08:59:02.228Z,115.22
2022-10-25T09:01:14.045Z,70.18
2022-10-25T09:03:24.893Z,42.22
2022-10-25T09:05:42.350Z,33.50
2022-10-25T09:07:51.416Z,34.17
2022-10-25T09:10:19.358Z,34.83
2022-10-25T09:12:38.714Z,36.70
2022-10-25T09:14:59.157Z,32.75
2022-10-25T09:17:21.265Z,33.55
2022-10-25T09:19:34.143Z,35.25
2022-10-25T09:22:00.472Z,36.03
2022-10-25T09:24:09.884Z,33.10
2022-10-25T09:26:26.834Z,33.33
2022-10-25T09:28:44.479Z,31.58
2022-10-25T09:30:46.824Z,35.13
2022-10-25T09:33:01.505Z,36.95
2022-10-25T09:35:06.867Z,34.53
2022-10-25T09:37:25.462Z,35.35
2022-10-25T09:39:44.888Z,37.63
2022-10-25T09:41:55.163Z,34.33
2022-10-25T09:44:02.989Z,37.00
2022-10-25T09:46:20.885Z,39.22
2022-10-25T09:48:31.739Z,35.33
2022-10-25T09:50:57.799Z,36.65
2022-10-25T09:53:05.622Z,36.72
2022-10-25T09:55:35.257Z,35.70
2022-10-25T09:57:37.584Z,34.90
2022-10-25T09:59:39.692Z,35.67
2022-10-25T10:01:42.399Z,33.72
2022-10-25T10:03:47.063Z,34.15
2022-10-25T10:06:02.071Z,36.13
2022-10-25T10:08:04.361Z,35.40
2022-10-25T10:10:11.171Z,33.50
2022-10-25T10:12:31.116Z,34.15
2022-10-25T10:15:09.846Z,35.35
2022-10-25T10:17:16.433Z,35.17
2022-10-25T10:19:22.727Z,36.63
2022-10-25T10:21:25.072Z,37.58
2022-10-25T10:23:33.582Z,38.78
2022-10-25T10:25:35.779Z,43.05
2022-10-25T10:27:37.676Z,53.90
2022-10-25T10:29:57.091Z,81.57
2022-10-25T10:32:22.031Z,156.68
2022-10-25T10:34:46.002Z,119.18
2022-10-25T10:36:50.113Z,65.20
2022-10-25T10:38:52.636Z,50.38
2022-10-25T10:41:20.749Z,48.55
2022-10-25T10:43:31.178Z,51.53
2022-10-25T10:45:37.685Z,59.35
2022-10-25T10:47:48.990Z,56.08
2022-10-25T10:49:51.123Z,55.13
2022-10-25T10:51:53.132Z,59.25
2022-10-25T10:53:55.250Z,63.03
2022-10-25T10:56:00.175Z,50.53
2022-10-25T10:58:05.865Z,49.20
2022-10-25T11:00:25.320Z,54.47
2022-10-25T11:02:41.395Z,54.95
2022-10-25T11:04:51.607Z,52.00
2022-10-25T11:06:53.540Z,51.50
2022-10-25T11:09:18.139Z,46.33
2022-10-25T11:11:22.180Z,50.17
2022-10-25T11:13:25.946Z,58.33
2022-10-25T11:15:30.191Z,70.03
2022-10-25T11:17:37.988Z,80.20
2022-10-25T11:19:51.230Z,80.15
2022-10-25T11:22:02.283Z,78.18
2022-10-25T11:24:13.517Z,80.05
2022-10-25T11:26:33.461Z,81.53
2022-10-25T11:29:27.998Z,56.53
2022-10-25T11:31:56.000Z,51.80
2022-10-25T11:34:33.255Z,49.90
2022-10-25T11:37:09.774Z,47.40
2022-10-25T11:39:38.225Z,47.38
2022-10-25T11:41:54.633Z,51.70
2022-10-25T11:44:08.763Z,48.03
2022-10-25T11:46:27.163Z,51.03
2022-10-25T11:49:13.828Z,50.67
2022-10-25T11:51:18.816Z,47.65
2022-10-25T11:53:33.060Z,49.42
2022-10-25T11:55:45.349Z,58.63
2022-10-25T11:58:16.806Z,57.38
2022-10-25T12:00:52.089Z,46.80
2022-10-25T12:03:02.876Z,46.92
2022-10-25T12:05:13.974Z,42.05
2022-10-25T12:07:33.979Z,40.42
2022-10-25T12:09:53.551Z,46.85
2022-10-25T12:12:10.402Z,44.30
2022-10-25T12:14:28.479Z,39.30
2022-10-25T12:16:32.564Z,41.78
2022-10-25T12:18:45.089Z,43.78
2022-10-25T12:20:49.687Z,48.10
2022-10-25T12:22:56.114Z,46.20
2022-10-25T12:25:05.614Z,49.60
2022-10-25T12:27:11.726Z,52.47
2022-10-25T12:29:33.220Z,56.42
2022-10-25T12:31:46.072Z,53.83
2022-10-25T12:34:14.870Z,50.65
2022-10-25T12:36:45.352Z,48.90
2022-10-25T12:38:47.800Z,41.72
2022-10-25T12:40:54.608Z,42.15
2022-10-25T12:43:17.277Z,46.55
2022-10-25T12:45:37.854Z,54.55
2022-10-25T12:47:58.322Z,68.65
2022-10-25T12:50:06.190Z,57.25
2022-10-25T12:52:28.653Z,54.92
2022-10-25T12:54:49.723Z,56.22
2022-10-25T12:57:15.794Z,51.85
2022-10-25T12:59:36.220Z,49.85
2022-10-25T13:02:04.431Z,45.47
2022-10-25T13:04:23.175Z,40.30
2022-10-25T13:06:44.769Z,38.42
2022-10-25T13:08:47.351Z,38.60
2022-10-25T13:10:58.175Z,35.78
2022-10-25T13:13:05.645Z,34.58
2022-10-25T13:15:18.699Z,31.25
2022-10-25T13:17:20.642Z,30.70
2022-10-25T13:19:35.934Z,30.70
2022-10-25T13:21:53.654Z,30.75
2022-10-25T13:23:59.770Z,31.10
2022-10-25T13:26:08.484Z,32.03
2022-10-25T13:28:16.550Z,32.15
2022-10-25T13:32:25.971Z,32.17
2022-10-25T13:34:34.604Z,31.35
2022-10-25T13:40:34.105Z,29.00
2022-10-25T13:42:38.562Z,28.67
2022-10-25T13:44:58.587Z,27.02
2022-10-25T13:47:00.639Z,28.90
2022-10-25T13:49:23.319Z,27.30
2022-10-25T13:51:25.742Z,28.42
2022-10-25T13:53:38.027Z,26.92
2022-10-25T13:55:58.424Z,26.40
2022-10-25T13:58:01.487Z,29.02
2022-10-25T14:00:11.813Z,27.60
2022-10-25T14:02:20.001Z,26.80
2022-10-25T14:04:42.128Z,26.42
2022-10-25T14:06:43.982Z,29.27
2022-10-25T14:08:55.904Z,28.55
2022-10-25T14:11:07.867Z,31.95
2022-10-25T14:13:19.518Z,28.58
2022-10-25T14:15:48.819Z,27.00
2022-10-25T14:17:51.086Z,26.15
2022-10-25T14:20:02.946Z,26.63
2022-10-25T14:22:13.886Z,29.85
2022-10-25T14:24:17.423Z,31.40
2022-10-25T14:26:21.399Z,32.60
2022-10-25T14:28:31.668Z,31.65
2022-10-25T14:30:52.980Z,31.17
2022-10-25T14:33:01.235Z,31.67
2022-10-25T14:35:03.440Z,29.73
2022-10-25T14:37:05.701Z,30.45
2022-10-25T14:39:20.170Z,29.50
2022-10-25T14:41:26.893Z,27.35
2022-10-25T14:43:32.136Z,30.75
2022-10-25T14:45:34.316Z,28.10
2022-10-25T14:47:36.600Z,26.38
2022-10-25T14:49:39.021Z,26.83
2022-10-25T14:51:43.462Z,25.77
2022-10-25T14:53:56.110Z,27.33
2022-10-25T14:56:04.053Z,26.60
2022-10-25T14:58:12.024Z,26.92
2022-10-25T15:00:19.830Z,25.23
2022-10-25T15:02:33.152Z,26.80
2022-10-25T15:04:40.808Z,27.02
2022-10-25T15:06:43.355Z,25.85
2022-10-25T15:08:50.648Z,25.73
2022-10-25T15:11:09.567Z,26.60
2022-10-25T15:13:21.209Z,27.52
2022-10-25T15:15:44.247Z,29.08
2022-10-25T15:17:53.086Z,32.70
2022-10-25T15:20:03.274Z,37.55
2022-10-25T15:22:10.747Z,33.30
2022-10-25T15:24:21.022Z,30.40
2022-10-25T15:26:33.550Z,32.42
2022-10-25T15:28:54.823Z,32.70
2022-10-25T15:31:02.437Z,28.05
2022-10-25T15:33:10.287Z,27.15
2022-10-25T15:35:24.401Z,30.30
2022-10-25T15:37:28.184Z,28.98
2022-10-25T15:39:31.491Z,28.33
2022-10-25T15:41:35.482Z,30.63
2022-10-25T15:43:37.445Z,27.33
2022-10-25T15:45:40.468Z,26.52
2022-10-25T15:47:42.778Z,29.88
2022-10-25T15:49:44.824Z,29.05
2022-10-25T15:51:47.170Z,28.77
2022-10-25T15:53:49.565Z,27.33
2022-10-25T15:55:52.652Z,27.70
2022-10-25T15:57:55.413Z,30.63
2022-10-25T15:59:57.487Z,28.80
2022-10-25T16:01:59.964Z,30.20
2022-10-25T16:04:01.970Z,30.63
2022-10-25T16:06:03.883Z,34.63
2022-10-25T16:08:05.925Z,36.90
2022-10-25T16:10:08.428Z,32.85
2022-10-25T16:12:32.856Z,29.95
2022-10-25T16:14:38.116Z,27.35
2022-10-25T16:16:41.249Z,29.90
2022-10-25T16:18:43.331Z,28.42
2022-10-25T16:20:45.530Z,28.92
2022-10-25T16:22:48.153Z,36.15
2022-10-25T16:24:50.715Z,35.42
2022-10-25T16:26:52.960Z,34.63
2022-10-25T16:28:55.078Z,31.33
2022-10-25T16:30:56.983Z,31.80
2022-10-25T16:32:59.072Z,30.50
2022-10-25T16:35:01.133Z,31.42
2022-10-25T16:37:05.499Z,32.08
2022-10-25T16:39:12.739Z,29.65
2022-10-25T16:41:29.711Z,30.85
2022-10-25T16:43:31.746Z,27.52
2022-10-25T16:45:39.797Z,28.42
2022-10-25T16:47:41.817Z,27.33
2022-10-25T16:49:43.924Z,25.40
2022-10-25T16:51:45.962Z,27.23
2022-10-25T16:53:48.713Z,25.75
2022-10-25T16:55:50.866Z,22.50
2022-10-25T16:57:52.675Z,21.85
2022-10-25T16:59:57.063Z,20.95
2022-10-25T17:01:59.257Z,20.23
2022-10-25T17:04:02.301Z,27.05
2022-10-25T17:06:22.243Z,30.00
2022-10-25T17:08:28.206Z,26.85
2022-10-25T17:10:30.914Z,26.05
2022-10-25T17:12:32.943Z,20.67
2022-10-25T17:14:35.442Z,18.15
2022-10-25T17:16:41.778Z,19.48
2022-10-25T17:18:43.916Z,18.35
2022-10-25T17:20:46.031Z,18.83
2022-10-25T17:22:49.055Z,18.85
2022-10-25T17:24:51.270Z,17.60
2022-10-25T17:26:53.378Z,18.83
2022-10-25T17:28:55.531Z,18.67
2022-10-25T17:30:58.263Z,18.67
2022-10-25T17:33:00.771Z,19.50
2022-10-25T17:39:03.249Z,20.23
2022-10-25T17:41:05.555Z,21.13
2022-10-25T17:43:07.877Z,23.45
2022-10-25T17:45:10.539Z,22.27
2022-10-25T17:47:13.039Z,22.80
2022-10-25T17:49:15.482Z,21.20
2022-10-25T17:51:17.540Z,21.42
2022-10-25T17:53:19.573Z,20.92
2022-10-25T17:55:21.574Z,22.30
2022-10-25T17:57:23.661Z,24.40
2022-10-25T17:59:27.813Z,23.42
2022-10-25T18:01:32.118Z,23.50
2022-10-25T18:03:34.096Z,25.17
2022-10-25T18:05:39.581Z,24.52
2022-10-25T18:07:41.562Z,23.05
2022-10-25T18:09:43.745Z,21.80
2022-10-25T18:11:46.637Z,21.52
2022-10-25T18:13:59.291Z,20.17
2022-10-25T18:16:01.618Z,22.58
2022-10-25T18:18:03.831Z,27.13
2022-10-25T18:20:06.647Z,27.52
2022-10-25T18:22:08.578Z,26.65
2022-10-25T18:24:13.025Z,28.73
2022-10-25T18:26:18.571Z,31.35
2022-10-25T18:28:20.884Z,30.40
2022-10-25T18:30:23.039Z,33.47
2022-10-25T18:32:32.097Z,31.30
2022-10-25T18:34:35.862Z,31.95
2022-10-25T18:36:37.654Z,31.35
2022-10-25T18:38:39.713Z,31.15
2022-10-25T18:40:41.566Z,31.38
2022-10-25T18:42:58.894Z,29.10
2022-10-25T18:45:01.360Z,28.27
2022-10-25T18:47:03.240Z,26.60
2022-10-25T18:53:06.327Z,26.58
2022-10-25T18:55:08.497Z,26.50
2022-10-25T18:57:10.717Z,23.92
2022-10-25T18:59:12.601Z,26.95
2022-10-25T19:01:22.869Z,26.33
2022-10-25T19:03:25.072Z,25.05
2022-10-25T19:05:29.243Z,26.58
2022-10-25T19:07:31.278Z,26.80
2022-10-25T19:09:33.155Z,27.38
2022-10-25T19:11:35.366Z,27.73
2022-10-25T19:13:37.959Z,28.05
2022-10-25T19:15:40.000Z,28.25
2022-10-25T19:17:42.018Z,26.55
2022-10-25T19:19:43.962Z,29.33
2022-10-25T19:21:46.677Z,28.08
2022-10-25T19:23:48.785Z,24.45
2022-10-25T19:25:51.182Z,23.13
2022-10-25T19:27:53.261Z,24.25
2022-10-25T19:29:57.625Z,20.40
2022-10-25T19:31:59.589Z,21.58
2022-10-25T19:34:03.454Z,20.35
2022-10-25T19:36:09.625Z,19.13
2022-10-25T19:38:12.176Z,18.95
2022-10-25T19:40:14.560Z,18.00
2022-10-25T19:42:17.097Z,18.98
2022-10-25T19:44:19.091Z,19.67
2022-10-25T19:46:21.768Z,17.52
2022-10-25T19:48:24.618Z,16.98
2022-10-25T19:50:28.984Z,17.75
2022-10-25T19:52:31.483Z,17.10
2022-10-25T19:54:35.940Z,20.02
2022-10-25T19:56:39.330Z,21.73
2022-10-25T19:58:41.768Z,19.77
2022-10-25T20:00:43.850Z,19.05
2022-10-25T20:02:45.771Z,19.75
2022-10-25T20:04:53.357Z,17.90
2022-10-25T20:06:55.501Z,17.35
2022-10-25T20:08:59.000Z,16.83
2022-10-25T20:11:01.976Z,17.00
2022-10-25T20:13:04.878Z,15.70
2022-10-25T20:15:07.752Z,16.70
2022-10-25T20:17:09.942Z,17.25
2022-10-25T20:19:14.184Z,16.27
2022-10-25T20:21:19.607Z,16.00
2022-10-25T20:23:21.931Z,15.57
2022-10-25T20:25:25.295Z,17.27
2022-10-25T20:27:27.361Z,16.58
2022-10-25T20:29:29.382Z,16.08
2022-10-25T20:31:34.124Z,17.00
2022-10-25T20:33:36.090Z,16.13
2022-10-25T20:35:40.484Z,15.38
2022-10-25T20:37:42.480Z,17.27
2022-10-25T20:39:44.537Z,18.33
2022-10-25T20:41:46.695Z,17.80
2022-10-25T20:43:51.715Z,18.17
2022-10-25T20:45:53.910Z,20.73
2022-10-25T20:47:59.833Z,21.38
2022-10-25T20:50:02.318Z,24.42
2022-10-25T20:52:04.733Z,26.85
2022-10-25T20:54:09.956Z,29.45
2022-10-25T20:56:13.842Z,28.27
2022-10-25T20:58:17.428Z,25.65
2022-10-25T21:00:20.596Z,26.15
2022-10-25T21:02:22.989Z,21.85
2022-10-25T21:04:30.663Z,24.08
2022-10-25T21:06:44.248Z,36.10
2022-10-25T21:08:46.220Z,38.78
2022-10-25T21:10:56.166Z,64.10
2022-10-25T21:12:59.097Z,60.80
2022-10-25T21:15:01.061Z,56.72
2022-10-25T21:17:03.090Z,50.58
2022-10-25T21:19:05.090Z,37.22
2022-10-25T21:21:09.946Z,29.65
2022-10-25T21:23:12.424Z,24.77
2022-10-25T21:25:15.144Z,22.35
2022-10-25T21:27:20.168Z,22.92
2022-10-25T21:29:22.705Z,21.88
2022-10-25T21:31:24.792Z,22.15
2022-10-25T21:33:26.757Z,22.55
2022-10-25T21:35:28.646Z,23.58
2022-10-25T21:37:30.594Z,25.08
2022-10-25T21:39:33.239Z,27.67
2022-10-25T21:41:35.590Z,27.80
2022-10-25T21:43:43.082Z,29.38
2022-10-25T21:45:50.397Z,26.63
2022-10-25T21:47:52.988Z,25.88
2022-10-25T21:49:55.302Z,25.40
2022-10-25T21:51:57.627Z,23.90
2022-10-25T21:54:01.454Z,21.95
2022-10-25T21:56:18.060Z,23.10
2022-10-25T21:58:22.483Z,22.23
2022-10-25T22:00:24.452Z,20.48
2022-10-25T22:02:26.682Z,21.83
2022-10-25T22:04:28.684Z,23.10
2022-10-25T22:06:30.807Z,22.92
2022-10-25T22:08:32.988Z,21.77
2022-10-25T22:10:34.916Z,21.70
2022-10-25T22:12:36.915Z,21.75
2022-10-25T22:14:38.820Z,21.73
2022-10-25T22:16:41.060Z,21.63
2022-10-25T22:18:48.079Z,23.55
2022-10-25T22:21:01.604Z,22.35
2022-10-25T22:23:03.705Z,21.63
2022-10-25T22:25:08.905Z,20.40
2022-10-25T22:27:10.976Z,20.77
2022-10-25T22:29:15.111Z,19.48
2022-10-25T22:31:17.943Z,21.83
2022-10-25T22:33:19.894Z,23.23
2022-10-25T22:35:21.926Z,21.67
2022-10-25T22:37:23.942Z,22.38
2022-10-25T22:39:26.030Z,23.02
2022-10-25T22:41:29.739Z,21.50
2022-10-25T22:43:37.255Z,22.08
2022-10-25T22:45:42.065Z,20.02
2022-10-25T22:47:47.555Z,18.50
2022-10-25T22:49:49.859Z,18.52
2022-10-25T22:51:51.869Z,17.20
2022-10-25T22:53:54.153Z,16.83
2022-10-25T22:55:58.728Z,16.30
2022-10-25T22:58:00.760Z,16.88
2022-10-25T23:00:03.238Z,16.88
2022-10-25T23:02:05.391Z,16.42
2022-10-25T23:04:12.664Z,15.93
2022-10-25T23:06:17.200Z,17.20
2022-10-25T23:08:19.164Z,16.30
2022-10-25T23:10:21.135Z,16.00
2022-10-25T23:12:23.481Z,15.23
2022-10-25T23:14:25.659Z,16.38
2022-10-25T23:16:28.686Z,16.35
2022-10-25T23:18:30.877Z,14.40
2022-10-25T23:20:33.219Z,14.93
2022-10-25T23:22:35.353Z,15.02
2022-10-25T23:24:37.404Z,16.75
2022-10-25T23:26:39.826Z,18.13
2022-10-25T23:28:41.798Z,16.45
2022-10-25T23:30:44.387Z,16.48
2022-10-25T23:32:46.491Z,15.70
2022-10-25T23:34:48.908Z,16.67
2022-10-25T23:36:51.452Z,16.83
2022-10-25T23:38:54.946Z,16.15
2022-10-25T23:40:57.131Z,17.00
2022-10-25T23:42:59.749Z,15.45
2022-10-25T23:45:03.373Z,15.23
2022-10-25T23:47:05.534Z,15.50
2022-10-25T23:49:07.724Z,14.27
2022-10-25T23:51:12.430Z,15.18
2022-10-25T23:53:14.418Z,15.82
2022-10-25T23:55:16.462Z,14.50
2022-10-25T23:57:19.192Z,14.70
2022-10-25T23:59:21.379Z,12.73
